• Join FlightAware (Why Join?)
  • Login
  • US Flag 
02:05AM EDT


 

Airport Tracker/Info


-or-


 

Live Flight TrackerFlight Track Log ✈ N901SC ✈ 20-Mar-2012 ✈ KPWK - KTEB

Flight Track Log - Related Links

Times and Time Zones

All times are in EDT time to prevent confusion due to time zone crossing. See the N901SC flight status page for this flight to view local times or setup timezone preferences in your user account.

Time Position Orientation Groundspeed Altitude Reporting Facility
EDT Latitude Longitude Course Direction KTS MPH feet Rate Location/Type
08:21AM 42.1771 -84.1574 272° West  Level FlightAware Approximate
08:22AM 42.2000 -87.8333 121° Southeast 269 310 6,400  Level Chicago TRACON
08:23AM 42.1728 -87.7725 102° East 273 314 8,800 2,940 Climbing Chicago Center
08:24AM 42.1592 -87.6833 94° East 246 283 12,200 3,000 Climbing Chicago Center
08:25AM 42.1533 -87.5714 87° East 268 308 14,900 2,940 Climbing Chicago Center
08:26AM 42.1578 -87.4536 86° East 292 336 18,100 2,880 Climbing Chicago Center
08:27AM 42.1639 -87.3358 88° East 309 356 20,700 2,400 Climbing Chicago Center
08:28AM 42.1678 -87.2067 87° East 323 372 22,900 1,560 Climbing Chicago Center
08:29AM 42.1733 -87.0636 87° East 351 404 23,900 1,680 Climbing Chicago Center
08:30AM 42.1789 -86.9150 86° East 381 438 26,300 2,460 Climbing Chicago Center
08:31AM 42.1861 -86.7689 87° East 388 447 28,900 2,340 Climbing Chicago Center
08:32AM 42.1911 -86.6286 88° East 388 447 31,000 1,980 Climbing Chicago Center
08:33AM 42.1939 -86.4856 86° East 383 441 32,900 1,860 Climbing Chicago Center
08:34AM 42.2008 -86.3478 89° East 376 433 34,800 1,680 Climbing Chicago Center
08:35AM 42.2033 -86.2131 87° East 366 421 36,300 1,080 Climbing Chicago Center
08:36AM 42.2097 -86.0614 91° East 366 421 37,000 1,020 Climbing Chicago Center
08:37AM 42.2075 -85.9214 88° East 373 429 38,400 1,080 Climbing Chicago Center
08:38AM 42.2117 -85.7836 87° East 373 429 39,200 600 Climbing Chicago Center
08:40AM 42.2222 -85.4881 89° East 371 427 40,300 540 Climbing Cleveland Center
08:41AM 42.2242 -85.3422 88° East 381 438 40,900 300 Climbing Cleveland Center
08:42AM 42.2281 -85.1939 89° East 386 444 41,000  Climbing Cleveland Center
08:43AM 42.2297 -85.0425 91° East 396 456 41,000  Level Cleveland Center
08:44AM 42.2275 -84.8825 90° East 418 481 41,000  Level Cleveland Center
08:45AM 42.2272 -84.7253 97° East 424 488 41,000  Level Cleveland Center
08:46AM 42.2136 -84.5758 91° East 429 494 41,000  Level Cleveland Center
08:47AM 42.2114 -84.3933 92° East 435 501 41,000  Level Cleveland Center
08:48AM 42.2064 -84.2275 92° East 440 506 41,000  Level Cleveland Center
08:49AM 42.2011 -84.0619 91° East 440 506 41,000  Level Cleveland Center
08:50AM 42.1978 -83.8933 93° East 440 506 41,000  Level Cleveland Center
08:51AM 42.1919 -83.7278 92° East 440 506 41,000  Level Cleveland Center
08:52AM 42.1878 -83.5789 91° East 447 514 41,000  Level Cleveland Center
08:53AM 42.1842 -83.3911 91° East 447 514 41,000  Level Cleveland Center
08:54AM 42.1817 -83.2256 95° East 442 509 41,000  Level Cleveland Center
08:55AM 42.1708 -83.0569 92° East 448 516 41,000  Level Cleveland Center
08:56AM 42.1661 -82.8914 93° East 448 516 41,000  Level Cleveland Center
08:57AM 42.1589 -82.7233 93° East 439 505 41,000  Level Cleveland Center
08:58AM 42.1533 -82.5606 94° East 444 511 41,000  Level Cleveland Center
08:59AM 42.1436 -82.3950 93° East 444 511 41,000  Level Cleveland Center
09:00AM 42.1378 -82.2269 92° East 444 511 41,000  Level Cleveland Center
09:01AM 42.1336 -82.0811 94° East 444 511 41,000  Level Cleveland Center
09:02AM 42.1253 -81.9186 93° East 444 511 41,000  Level Cleveland Center
09:03AM 42.1186 -81.7506 94° East 444 511 41,000  Level Cleveland Center
09:04AM 42.1097 -81.5850 93° East 444 511 41,000  Level Cleveland Center
09:05AM 42.1028 -81.4228 94° East 438 504 41,000  Level Cleveland Center
09:06AM 42.0936 -81.2408 94° East 446 513 41,000  Level Cleveland Center
09:07AM 42.0839 -81.0756 95° East 440 506 41,000  Level Cleveland Center
09:08AM 42.0742 -80.9133 94° East 440 506 41,000  Level Cleveland Center
09:09AM 42.0661 -80.7481 96° East 440 506 41,000  Level Cleveland Center
09:10AM 42.0539 -80.5831 93° East 440 506 41,000  Level Cleveland Center
09:11AM 42.0475 -80.4211 95° East 440 506 41,000  Level Cleveland Center
09:12AM 42.0367 -80.2589 95° East 445 512 41,000  Level Cleveland Center
09:13AM 42.0258 -80.1081 94° East 440 506 41,000  Level Cleveland Center
09:14AM 42.0164 -79.9319 94° East 440 506 41,000  Level Cleveland Center
09:15AM 42.0072 -79.7672 95° East 440 506 41,000  Level Cleveland Center
09:16AM 41.9956 -79.6053 95° East 440 506 41,000  Level Cleveland Center
09:17AM 41.9856 -79.4406 96° East 440 506 41,000  Level Cleveland Center
09:18AM 41.9733 -79.2761 96° East 440 506 41,000  Level Cleveland Center
09:19AM 41.9611 -79.1144 95° East 440 506 41,000  Level Cleveland Center
09:20AM 41.9506 -78.9500 96° East 440 506 41,000  Level Cleveland Center
09:21AM 41.9378 -78.7883 95° East 440 506 41,000  Level Cleveland Center
09:22AM 41.9267 -78.6239 96° East 440 506 41,000  Level Cleveland Center
09:23AM 41.9133 -78.4625 96° East 440 506 41,000 -600 Level Cleveland Center
09:25AM 41.8892 -78.1322 98° East 426 490 39,200 -1,500 Descending New York Center
09:27AM 41.8561 -77.8164 110° East 431 496 35,000 -1,440 Descending New York Center
09:28AM 41.8147 -77.6672 109° East 431 496 35,000  Level New York Center
09:29AM 41.7739 -77.5072 110° East 443 510 35,000 -540 Level New York Center
09:30AM 41.7308 -77.3500 109° East 448 516 34,000 -1,080 Descending New York Center
09:31AM 41.6931 -77.2019 111° Southeast 442 509 32,900 -1,440 Descending New York Center
09:32AM 41.6511 -77.0533 109° East 437 503 31,200 -1,740 Descending New York Center
09:33AM 41.6164 -76.9197 110° East 430 495 29,500 -1,740 Descending New York Center
09:34AM 41.5761 -76.7692 112° Southeast 424 488 27,700 -1,800 Descending New York Center
09:35AM 41.5333 -76.6267 109° East 417 480 26,000 -1,740 Descending New York Center
09:36AM 41.4964 -76.4850 109° East 417 480 24,300 -1,020 Descending New York Center
09:37AM 41.4594 -76.3433 111° Southeast 417 480 24,000 -240 Descending New York Center
09:38AM 41.4147 -76.1847 112° Southeast 412 474 23,900 -840 Descending New York Center
09:39AM 41.3728 -76.0486 112° Southeast 412 474 22,400 -1,560 Descending New York Center
09:40AM 41.3367 -75.9269 110° East 395 455 20,800 -1,680 Descending New York Center
09:41AM 41.2969 -75.7803 110° East 383 441 19,100 -1,620 Descending New York Center
09:42AM 41.2589 -75.6450 115° Southeast 383 441 17,600 -1,680 Descending New York Center
09:43AM 41.2161 -75.5206 114° Southeast 376 433 15,800 -1,920 Descending New York Center
09:44AM 41.1789 -75.4106 114° Southeast 361 415 13,800 -2,100 Descending New York Center
09:45AM 41.1414 -75.2978 113° Southeast 341 392 11,600 -2,160 Descending New York Center
09:46AM 41.1081 -75.1936 114° Southeast 306 352 9,600 -1,860 Descending New York Center
09:47AM 41.0781 -75.1036 115° Southeast 270 311 8,000 -1,620 Descending New York Center
09:48AM 41.0478 -75.0161 117° Southeast 259 298 6,400 -1,080 Descending New York Center
09:49AM 41.0192 -74.9403 123° Southeast 259 298 5,900 -600 Descending New York Center
09:50AM 40.9803 -74.8608 120° Southeast 259 298 5,200 -960 Descending New York Center
09:51AM 40.9417 -74.7733 121° Southeast 254 292 4,100 -780 Descending New York Center
09:52AM 40.9106 -74.7056 121° Southeast 254 292 3,700 -540 Descending New York Center
09:53AM 40.8739 -74.6239 122° Southeast 242 278 3,100 -360 Descending New York Center
09:54AM 40.8367 -74.5450 120° Southeast 247 284 3,100  Level New York Center
09:55AM 40.8036 -74.4692 123° Southeast 247 284 3,100 -120 Level New York Center
09:56AM 40.7703 -74.4017 120° Southeast 242 278 2,900 -540 Descending New York Center
09:57AM 40.7353 -74.3203 93° East 239 275 2,100 -420 Descending New York Center
09:58AM 40.7331 -74.2628 63° Northeast 196 226 2,100  Level New York Center
09:59AM 40.7556 -74.2036 48° Northeast 158 182 2,100 -360 Level New York Center
10:00AM 40.7881 -74.1558 47° Northeast 166 191 1,500 -600 Descending New York Center
10:01AM 40.8164 -74.1161 47° Northeast 166 191 1,000 8,160 Descending New York Center
10:02AM 40.8425 -74.0792 47° Northeast 141 162 18,000 8,400 Climbing New York Center
10:03AM 40.8683 -74.0419 49° Northeast 141 162 18,000  Level New York Center
10:04AM 40.8944 -74.0019 47° Northeast 141 162 18,000  Level New York Center
10:05AM 40.9228 -73.9622 49° Northeast 141 162 18,000  Level New York Center
10:06AM 40.9489 -73.9222 49° Northeast 141 162 18,000  Level New York Center